Willmar, MN

11:55 PM CDT on October 18, 2017 (GMT -0500)
Willmar

Weather History for KBDH - February, 2014

Change the Weather History Date:

Tuesday, February 11, 2014

  Actual Average (KBBB) Record (KBBB)
Temperature  
Mean Temperature 0 °F -  
Max Temperature 19 °F 22 °F 55 °F (2005)
Min Temperature -18 °F 4 °F -27 °F (1981)
Degree Days  
Heating Degree Days 64    
Moisture  
Dew Point -3 °F    
Average Humidity 74    
Maximum Humidity 84    
Minimum Humidity 68    
Precipitation  
Precipitation 0.00 in - - ()
Sea Level Pressure  
Sea Level Pressure 30.16 in    
Wind  
Wind Speed 7 mph (SSE)    
Max Wind Speed 21 mph    
Max Gust Speed 29 mph    
Visibility 10 miles    
Events Snow    
Averages and records for this station are not official NWS values.
T = Trace of Precipitation, MM = Missing Value Source: NWS Daily Summary

Daily Weather History Graph

Daily Weather History Graph

Search for Another Location

Airport or City:

Trip Planner

Search our weather history database for the weather conditions in past years. The results will help you decide how hot, cold, wet, or windy it might be!

Date:

Astronomy

Feb. 11, 2014 Rise Set
Actual Time 7:27 AM CST 5:42 PM CST
Civil Twilight 6:56 AM CST 6:13 PM CST
Nautical Twilight 6:22 AM CST 6:47 PM CST
Astronomical Twilight 5:48 AM CST 7:22 PM CST
Moon 3:00 PM CST (2/11) 5:08 AM CST (2/11)
Length of Visible Light 11h 16m
Length of Day
10h 15m
Waxing Gibbous, 91% of the Moon is Illuminated
Feb 11
Waxing Gibbous
Feb 14
Full
Feb 22
Last Quarter
Mar 1
New
Mar 8
First Quarter

Hourly Weather History & Observations

Time (CST) Temp. Windchill Dew Point Humidity Pressure Visibility Wind Dir Wind Speed Gust Speed Precip Events Conditions
12:15 AM -14.8 °F - -18.4 °F 84% 30.41 in 10.0 mi Calm Calm - N/A   Clear
12:35 AM -13.0 °F - -18.4 °F 77% 30.41 in 10.0 mi Calm Calm - N/A   Clear
12:56 AM -11.2 °F -20.6 °F -16.6 °F 77% 30.40 in 10.0 mi SSE 3.5 mph - N/A   Clear
1:15 AM -11.2 °F - -16.6 °F 77% 30.40 in 10.0 mi Calm Calm - N/A   Clear
1:35 AM -16.6 °F -26.8 °F -23.8 °F 70% 30.40 in 10.0 mi SE 3.5 mph - N/A   Clear
1:56 AM -16.6 °F - -22.0 °F 76% 30.40 in 10.0 mi Calm Calm - N/A   Clear
2:15 AM -13.0 °F - -18.4 °F 77% 30.39 in 10.0 mi Calm Calm - N/A   Clear
2:35 AM -13.0 °F - -18.4 °F 77% 30.38 in 10.0 mi Calm Calm - N/A   Clear
2:56 AM -13.0 °F - -18.4 °F 77% 30.38 in 10.0 mi Calm Calm - N/A   Clear
3:15 AM -16.6 °F -26.8 °F -22.0 °F 76% 30.37 in 10.0 mi SE 3.5 mph - N/A   Clear
3:35 AM -14.8 °F -24.8 °F -22.0 °F 70% 30.37 in 10.0 mi ESE 3.5 mph - N/A   Clear
3:55 AM -14.8 °F -24.8 °F -20.2 °F 77% 30.37 in 10.0 mi SE 3.5 mph - N/A   Clear
4:15 AM -14.8 °F -27.2 °F -22.0 °F 70% 30.35 in 10.0 mi ESE 4.6 mph - N/A   Clear
4:35 AM -16.6 °F -31.3 °F -23.8 °F 70% 30.35 in 10.0 mi SE 5.8 mph - N/A   Clear
4:55 AM -18.4 °F -31.4 °F -25.6 °F 70% 30.34 in 10.0 mi ESE 4.6 mph - N/A   Clear
5:15 AM -16.6 °F -31.3 °F -22.0 °F 76% 30.34 in 10.0 mi ESE 5.8 mph - N/A   Clear
5:36 AM -16.6 °F -31.3 °F -22.0 °F 76% 30.33 in 10.0 mi ESE 5.8 mph - N/A   Clear
5:55 AM -14.8 °F -33.5 °F -22.0 °F 70% 30.32 in 10.0 mi SE 9.2 mph - N/A   Clear
6:15 AM -14.8 °F -33.5 °F -20.2 °F 77% 30.31 in 10.0 mi SE 9.2 mph - N/A   Clear
6:36 AM -14.8 °F -32.2 °F -20.2 °F 77% 30.30 in 10.0 mi SE 8.1 mph - N/A   Clear
6:55 AM -13.0 °F -30.0 °F -18.4 °F 77% 30.30 in 10.0 mi SE 8.1 mph - N/A   Clear
7:15 AM -11.2 °F -29.0 °F -18.4 °F 70% 30.28 in 10.0 mi SE 9.2 mph - N/A   Clear
7:36 AM -11.2 °F -29.0 °F -18.4 °F 70% 30.27 in 10.0 mi SE 9.2 mph - N/A   Clear
7:55 AM -9.4 °F -26.8 °F -16.6 °F 71% 30.27 in 10.0 mi SE 9.2 mph - N/A   Clear
8:15 AM -9.4 °F -25.6 °F -16.6 °F 71% 30.26 in 10.0 mi SE 8.1 mph - N/A   Clear
8:35 AM -7.6 °F -23.4 °F -14.8 °F 71% 30.26 in 10.0 mi SE 8.1 mph - N/A   Clear
8:55 AM -5.8 °F -21.2 °F -11.2 °F 77% 30.25 in 10.0 mi SSE 8.1 mph - N/A   Clear
9:15 AM -4.0 °F -19.0 °F -9.4 °F 78% 30.25 in 10.0 mi SSE 8.1 mph - N/A   Clear
9:35 AM -2.2 °F -18.0 °F -7.6 °F 78% 30.25 in 10.0 mi SSE 9.2 mph - N/A   Scattered Clouds
9:56 AM -0.4 °F -19.2 °F -5.8 °F 78% 30.23 in 10.0 mi SSE 13.8 mph - N/A   Mostly Cloudy
10:15 AM 3.2 °F -15.3 °F -2.2 °F 78% 30.22 in 10.0 mi SSE 15.0 mph - N/A   Overcast
10:35 AM 5.0 °F -10.0 °F -0.4 °F 78% 30.22 in 10.0 mi SSE 10.4 mph - N/A   Overcast
10:56 AM 6.8 °F -8.6 °F -0.4 °F 72% 30.21 in 10.0 mi SSE 11.5 mph 19.6 mph N/A   Overcast
11:15 AM 6.8 °F -10.0 °F 1.4 °F 79% 30.20 in 10.0 mi SSE 13.8 mph 20.7 mph N/A   Overcast
11:35 AM 8.6 °F -8.9 °F 1.4 °F 73% 30.18 in 10.0 mi SSE 16.1 mph 23.0 mph N/A   Overcast
11:55 AM 10.4 °F -5.4 °F 3.2 °F 73% 30.16 in 10.0 mi SSE 13.8 mph 21.9 mph N/A   Overcast
12:15 PM 12.2 °F -5.3 °F 5.0 °F 73% 30.14 in 10.0 mi SSE 18.4 mph 24.2 mph N/A   Overcast
12:35 PM 12.2 °F -2.5 °F 5.0 °F 73% 30.13 in 10.0 mi South 12.7 mph 20.7 mph N/A   Overcast
12:55 PM 15.8 °F 3.4 °F 6.8 °F 68% 30.12 in 10.0 mi South 10.4 mph 20.7 mph N/A   Scattered Clouds
1:15 PM 15.8 °F 4.2 °F 6.8 °F 68% 30.10 in 10.0 mi South 9.2 mph 20.7 mph N/A   Scattered Clouds
1:35 PM 15.8 °F 2.1 °F 6.8 °F 68% 30.09 in 10.0 mi South 12.7 mph 24.2 mph N/A   Overcast
1:55 PM 15.8 °F 0.9 °F 8.6 °F 73% 30.07 in 7.0 mi SSE 15.0 mph 21.9 mph N/A   Overcast
2:16 PM 15.8 °F -0.2 °F 8.6 °F 73% 30.06 in 7.0 mi SSE 17.3 mph 26.5 mph N/A   Overcast
2:35 PM 15.8 °F -1.1 °F 8.6 °F 73% 30.04 in 7.0 mi SSE 19.6 mph 28.8 mph N/A   Overcast
2:56 PM 17.6 °F 3.2 °F 8.6 °F 68% 30.04 in 7.0 mi SSE 15.0 mph 24.2 mph N/A   Overcast
3:15 PM 17.6 °F 1.3 °F 8.6 °F 68% 30.03 in 10.0 mi SSE 19.6 mph 26.5 mph N/A   Overcast
3:36 PM 15.8 °F -1.5 °F 8.6 °F 73% 30.02 in 7.0 mi SSE 20.7 mph 26.5 mph N/A   Overcast
3:55 PM 15.8 °F -0.2 °F 8.6 °F 73% 30.01 in 7.0 mi SSE 17.3 mph 26.5 mph N/A   Overcast
4:16 PM 15.8 °F -1.1 °F 8.6 °F 73% 30.00 in 7.0 mi SSE 19.6 mph 25.3 mph N/A   Overcast
4:35 PM 15.8 °F 0.9 °F 8.6 °F 73% 30.00 in 10.0 mi SSE 15.0 mph 23.0 mph N/A   Overcast
4:56 PM 17.6 °F 3.2 °F 10.4 °F 73% 29.99 in 10.0 mi SSE 15.0 mph - N/A   Overcast
5:15 PM 17.6 °F 3.2 °F 10.4 °F 73% 29.99 in 10.0 mi SSE 15.0 mph - N/A   Overcast
5:35 PM 17.6 °F 2.7 °F 10.4 °F 73% 29.98 in 10.0 mi SSE 16.1 mph - N/A   Overcast
5:56 PM 17.6 °F 2.7 °F 10.4 °F 73% 29.97 in 10.0 mi SSE 16.1 mph - N/A   Overcast
6:15 PM 17.6 °F 4.3 °F 10.4 °F 73% 29.98 in 10.0 mi SSE 12.7 mph - N/A   Mostly Cloudy
6:35 PM 17.6 °F 4.3 °F 10.4 °F 73% 29.98 in 10.0 mi SSE 12.7 mph - N/A   Scattered Clouds
6:56 PM 17.6 °F 4.3 °F 10.4 °F 73% 29.98 in 10.0 mi SSE 12.7 mph - N/A   Mostly Cloudy
7:15 PM 17.6 °F 7.3 °F 12.2 °F 79% 29.97 in 5.0 mi South 8.1 mph - N/A Snow Light Snow
7:35 PM 17.6 °F 7.3 °F 12.2 °F 79% 29.98 in 10.0 mi SSE 8.1 mph - N/A   Mostly Cloudy
7:56 PM 17.6 °F 8.2 °F 12.2 °F 79% 29.97 in 10.0 mi South 6.9 mph - N/A   Mostly Cloudy
8:15 PM 19.4 °F 11.5 °F 12.2 °F 74% 29.98 in 10.0 mi South 5.8 mph - N/A   Mostly Cloudy
8:35 PM 19.4 °F 11.5 °F 12.2 °F 74% 29.97 in 3.0 mi South 5.8 mph - N/A Snow Light Snow
8:56 PM 19.4 °F 10.4 °F 12.2 °F 74% 29.97 in 10.0 mi South 6.9 mph - N/A   Overcast
9:15 PM 19.4 °F 11.5 °F 12.2 °F 74% 29.97 in 10.0 mi South 5.8 mph - N/A   Mostly Cloudy
9:35 PM 19.4 °F 10.4 °F 12.2 °F 74% 29.97 in 10.0 mi South 6.9 mph - N/A   Scattered Clouds
9:56 PM 19.4 °F 10.4 °F 12.2 °F 74% 29.97 in 10.0 mi South 6.9 mph - N/A   Clear
10:15 PM 19.4 °F 11.5 °F 12.2 °F 74% 29.97 in 10.0 mi SSE 5.8 mph - N/A   Clear
10:35 PM 17.6 °F 8.2 °F 12.2 °F 79% 29.97 in 10.0 mi SSE 6.9 mph - N/A   Scattered Clouds
10:56 PM 17.6 °F 7.3 °F 12.2 °F 79% 29.97 in 10.0 mi SSE 8.1 mph - N/A   Mostly Cloudy
11:15 PM 17.6 °F 10.7 °F 12.2 °F 79% 29.97 in 10.0 mi South 4.6 mph - N/A   Overcast
11:35 PM 17.6 °F 12.3 °F 12.2 °F 79% 29.98 in 10.0 mi SSE 3.5 mph - N/A   Overcast
11:55 PM 19.4 °F 10.4 °F 12.2 °F 74% 29.97 in 10.0 mi SSE 6.9 mph - N/A   Overcast